createdAt,value
2018-03-25T04:42:36.675Z,3
2018-03-25T04:48:07.813Z,7
2018-03-25T04:51:08.010Z,10
2018-03-25T04:53:08.158Z,13
2018-03-25T04:54:37.372Z,17
2018-03-25T04:56:08.691Z,20
2018-03-25T04:57:37.532Z,23
2018-03-25T05:00:08.598Z,27
2018-03-25T05:02:08.708Z,30
2018-03-25T05:03:37.917Z,33
2018-03-25T05:05:08.847Z,37
2018-03-25T05:06:08.947Z,40
2018-03-25T05:07:09.030Z,43
2018-03-25T05:08:38.241Z,47
2018-03-25T05:09:09.695Z,50
2018-03-25T05:10:09.188Z,53
2018-03-25T05:10:38.345Z,57
2018-03-25T05:11:38.473Z,60
2018-03-25T05:12:09.330Z,63
2018-03-25T05:12:38.533Z,67
2018-03-25T05:13:09.373Z,70
2018-03-25T05:13:38.566Z,73
2018-03-25T05:14:09.417Z,77
2018-03-25T05:14:38.623Z,80
2018-03-25T05:15:09.461Z,83
2018-03-25T05:15:38.773Z,87
2018-03-25T05:16:09.576Z,93
2018-03-25T05:16:38.858Z,97
2018-03-25T05:17:09.578Z,103
2018-03-25T05:17:38.763Z,107
2018-03-25T05:18:09.646Z,113
2018-03-25T05:18:38.855Z,117
2018-03-25T05:19:09.706Z,123
2018-03-25T05:19:38.914Z,130
2018-03-25T05:20:09.786Z,133
2018-03-25T05:20:38.975Z,140
2018-03-25T05:21:09.843Z,147
2018-03-25T05:21:39.030Z,153
2018-03-25T05:22:09.899Z,160
2018-03-25T05:22:39.063Z,167
2018-03-25T05:23:09.952Z,173
2018-03-25T05:23:39.186Z,180
2018-03-25T05:24:10.018Z,187
2018-03-25T05:24:39.246Z,193
2018-03-25T05:25:09.275Z,200
2018-03-25T05:25:39.313Z,207
2018-03-25T05:26:10.191Z,213
2018-03-25T05:26:39.389Z,217
2018-03-25T05:27:10.871Z,223
2018-03-25T05:27:39.455Z,233
2018-03-25T05:28:10.314Z,240
2018-03-25T05:28:39.453Z,247
2018-03-25T05:29:10.423Z,257
2018-03-25T05:29:39.577Z,263
2018-03-25T05:30:10.423Z,270
2018-03-25T05:30:39.557Z,277
2018-03-25T05:31:10.467Z,283
2018-03-25T05:31:39.628Z,290
2018-03-25T05:32:10.549Z,300
2018-03-25T05:32:39.709Z,307
2018-03-25T05:33:10.581Z,317
2018-03-25T05:33:39.746Z,323
2018-03-25T05:34:10.725Z,333
2018-03-25T05:34:39.803Z,343
2018-03-25T05:35:10.747Z,350
2018-03-25T05:35:39.876Z,360
2018-03-25T05:36:10.764Z,367
2018-03-25T05:36:39.934Z,370
2018-03-25T05:37:10.811Z,377
2018-03-25T05:37:40.000Z,383
2018-03-25T05:38:10.882Z,390
2018-03-25T05:38:40.109Z,400
2018-03-25T05:39:10.938Z,410
2018-03-25T05:39:40.125Z,423
2018-03-25T05:40:10.994Z,430
2018-03-25T05:40:40.234Z,440
2018-03-25T05:41:11.124Z,450
2018-03-25T05:41:40.277Z,453
2018-03-25T05:42:11.164Z,460
2018-03-25T05:42:40.298Z,463
2018-03-25T05:43:11.220Z,467
2018-03-25T05:43:40.401Z,470
2018-03-25T05:44:40.472Z,477
2018-03-25T05:45:11.314Z,480
2018-03-25T05:45:40.575Z,487
2018-03-25T05:46:11.398Z,493
2018-03-25T05:46:40.575Z,503
2018-03-25T05:47:11.458Z,513
2018-03-25T05:47:40.633Z,523
2018-03-25T05:48:11.555Z,533
2018-03-25T05:48:40.691Z,543
2018-03-25T05:49:11.579Z,557
2018-03-25T05:49:40.730Z,570
2018-03-25T05:50:11.672Z,580
2018-03-25T05:50:40.788Z,593
2018-03-25T05:51:11.741Z,607
2018-03-25T05:51:40.850Z,620
2018-03-25T05:52:11.847Z,633
2018-03-25T05:52:40.924Z,643
2018-03-25T05:53:11.847Z,657
2018-03-25T05:53:40.993Z,670
2018-03-25T05:54:11.888Z,683
2018-03-25T05:54:41.079Z,703
2018-03-25T05:55:12.041Z,723
2018-03-25T05:55:41.162Z,743
2018-03-25T05:56:12.003Z,767
2018-03-25T05:56:41.180Z,790
2018-03-25T05:57:12.069Z,810
2018-03-25T05:57:41.299Z,827
2018-03-25T05:58:12.132Z,843
2018-03-25T05:58:41.324Z,853
2018-03-25T05:59:12.193Z,863
2018-03-25T05:59:41.368Z,867
2018-03-25T06:00:12.289Z,873
2018-03-25T06:00:42.257Z,877
2018-03-25T06:01:12.367Z,883
2018-03-25T06:01:41.526Z,897
2018-03-25T06:02:12.389Z,907
2018-03-25T06:02:41.581Z,920
2018-03-25T06:03:12.419Z,937
2018-03-25T06:03:41.613Z,950
2018-03-25T06:04:12.521Z,970
2018-03-25T06:04:41.708Z,987
2018-03-25T06:05:12.602Z,1003
2018-03-25T06:05:42.136Z,1020
2018-03-25T06:06:12.594Z,1033
2018-03-25T06:06:41.848Z,1050
2018-03-25T06:07:12.809Z,1060
2018-03-25T06:07:41.855Z,1070
2018-03-25T06:08:12.749Z,1077
2018-03-25T06:08:41.928Z,1087
2018-03-25T06:09:12.797Z,1093
2018-03-25T06:09:41.986Z,1100
2018-03-25T06:10:12.993Z,1110
2018-03-25T06:10:42.081Z,1120
2018-03-25T06:11:12.901Z,1130
2018-03-25T06:11:42.113Z,1143
2018-03-25T06:12:12.963Z,1160
2018-03-25T06:12:42.141Z,1177
2018-03-25T06:13:13.114Z,1193
2018-03-25T06:13:42.248Z,1210
2018-03-25T06:14:13.096Z,1223
2018-03-25T06:14:42.309Z,1237
2018-03-25T06:15:13.220Z,1247
2018-03-25T06:15:42.374Z,1257
2018-03-25T06:16:13.222Z,1263
2018-03-25T06:16:42.416Z,1267
2018-03-25T06:17:13.307Z,1270
2018-03-25T06:17:42.492Z,1267
2018-03-25T06:18:13.362Z,1260
2018-03-25T06:18:42.529Z,1253
2018-03-25T06:19:13.442Z,1250
2018-03-25T06:19:42.563Z,1247
2018-03-25T06:21:13.524Z,1250
2018-03-25T06:21:42.700Z,1253
2018-03-25T06:22:13.600Z,1260
2018-03-25T06:22:42.810Z,1267
2018-03-25T06:23:13.636Z,1280
2018-03-25T06:23:42.807Z,1287
2018-03-25T06:24:13.782Z,1300
2018-03-25T06:24:42.869Z,1313
2018-03-25T06:25:13.782Z,1323
2018-03-25T06:25:42.934Z,1337
2018-03-25T06:26:13.808Z,1343
2018-03-25T06:26:42.995Z,1347
2018-03-25T06:27:13.873Z,1353
2018-03-25T06:27:43.104Z,1357
2018-03-25T06:28:13.940Z,1363
2018-03-25T06:28:43.161Z,1367
2018-03-25T06:29:14.014Z,1373
2018-03-25T06:29:43.201Z,1380
2018-03-25T06:30:14.173Z,1390
2018-03-25T06:30:43.297Z,1400
2018-03-25T06:31:14.121Z,1410
2018-03-25T06:31:43.336Z,1423
2018-03-25T06:32:14.241Z,1433
2018-03-25T06:32:43.418Z,1447
2018-03-25T06:33:14.316Z,1457
2018-03-25T06:33:43.455Z,1473
2018-03-25T06:34:14.301Z,1487
2018-03-25T06:34:43.534Z,1500
2018-03-25T06:35:14.366Z,1513
2018-03-25T06:35:43.580Z,1533
2018-03-25T06:36:14.499Z,1550
2018-03-25T06:36:43.633Z,1567
2018-03-25T06:37:14.508Z,1587
2018-03-25T06:37:43.734Z,1607
2018-03-25T06:38:14.584Z,1630
2018-03-25T06:38:43.731Z,1653
2018-03-25T06:39:14.674Z,1677
2018-03-25T06:39:43.840Z,1697
2018-03-25T06:40:14.698Z,1710
2018-03-25T06:40:43.843Z,1730
2018-03-25T06:41:14.768Z,1740
2018-03-25T06:41:43.921Z,1753
2018-03-25T06:42:14.826Z,1770
2018-03-25T06:42:43.975Z,1780
2018-03-25T06:43:14.893Z,1793
2018-03-25T06:43:44.033Z,1807
2018-03-25T06:44:15.092Z,1823
2018-03-25T06:44:44.100Z,1840
2018-03-25T06:45:15.074Z,1857
2018-03-25T06:45:44.228Z,1877
2018-03-25T06:46:15.115Z,1900
2018-03-25T06:46:44.288Z,1923
2018-03-25T06:47:15.139Z,1953
2018-03-25T06:47:44.331Z,1990
2018-03-25T06:48:15.268Z,2027
2018-03-25T06:48:44.356Z,2063
2018-03-25T06:49:15.277Z,2097
2018-03-25T06:49:44.432Z,2130
2018-03-25T06:50:15.399Z,2157
2018-03-25T06:50:44.504Z,2180
2018-03-25T06:51:15.360Z,2207
2018-03-25T06:51:44.530Z,2237
2018-03-25T06:52:15.505Z,2260
2018-03-25T06:52:44.677Z,2277
2018-03-25T06:53:15.526Z,2290
2018-03-25T06:53:44.708Z,2300
2018-03-25T06:54:15.653Z,2310
2018-03-25T06:54:44.799Z,2327
2018-03-25T06:55:15.657Z,2347
2018-03-25T06:55:45.210Z,2370
2018-03-25T06:56:15.718Z,2403
2018-03-25T06:56:44.933Z,2443
2018-03-25T06:57:15.782Z,2487
2018-03-25T06:57:44.977Z,2533
2018-03-25T06:58:15.819Z,2577
2018-03-25T06:58:45.049Z,2617
2018-03-25T06:59:15.894Z,2657
2018-03-25T06:59:45.063Z,2693
2018-03-25T07:00:16.011Z,2733
2018-03-25T07:00:45.157Z,2773
2018-03-25T07:01:16.012Z,2810
2018-03-25T07:01:45.305Z,2853
2018-03-25T07:02:16.118Z,2897
2018-03-25T07:02:45.285Z,2940
2018-03-25T07:03:16.217Z,2980
2018-03-25T07:03:45.374Z,3010
2018-03-25T07:04:16.190Z,3043
2018-03-25T07:04:45.404Z,3067
2018-03-25T07:05:16.292Z,3087
2018-03-25T07:05:45.478Z,3107
2018-03-25T07:06:16.316Z,3123
2018-03-25T07:06:45.532Z,3140
2018-03-25T07:07:16.405Z,3157
2018-03-25T07:07:45.572Z,3173
2018-03-25T07:08:16.474Z,3197
2018-03-25T07:08:45.677Z,3223
2018-03-25T07:09:16.518Z,3260
2018-03-25T07:09:45.696Z,3300
2018-03-25T07:10:16.564Z,3347
2018-03-25T07:10:45.757Z,3403
2018-03-25T07:11:16.625Z,3460
2018-03-25T07:11:45.817Z,3530
2018-03-25T07:12:16.695Z,3603
2018-03-25T07:12:45.867Z,3670
2018-03-25T07:13:16.753Z,3740
2018-03-25T07:13:45.921Z,3813
2018-03-25T07:14:16.812Z,3880
2018-03-25T07:14:45.994Z,3947
2018-03-25T07:15:16.890Z,3973
2018-03-25T07:15:46.037Z,4013
2018-03-25T07:16:16.932Z,4053
2018-03-25T07:16:46.104Z,4080
2018-03-25T07:17:17.005Z,4107
2018-03-25T07:17:46.202Z,4140
2018-03-25T07:18:17.056Z,4173
2018-03-25T07:18:46.247Z,4210
2018-03-25T07:19:17.181Z,4247
2018-03-25T07:19:46.309Z,4290
2018-03-25T07:20:17.222Z,4343
2018-03-25T07:20:46.424Z,4393
2018-03-25T07:21:17.289Z,4437
2018-03-25T07:21:46.473Z,4477
2018-03-25T07:22:17.297Z,4500
2018-03-25T07:22:46.489Z,4513
2018-03-25T07:23:17.359Z,4507
2018-03-25T07:23:46.557Z,4493
2018-03-25T07:24:17.484Z,4473
2018-03-25T07:24:46.644Z,4453
2018-03-25T07:25:17.564Z,4457
2018-03-25T07:25:46.659Z,4477
2018-03-25T07:26:17.580Z,4513
2018-03-25T07:26:46.721Z,4580
2018-03-25T07:27:17.670Z,4657
2018-03-25T07:27:46.780Z,4730
2018-03-25T07:28:17.707Z,4807
2018-03-25T07:28:46.843Z,4870
2018-03-25T07:29:17.786Z,4910
2018-03-25T07:29:46.910Z,4930
2018-03-25T07:30:17.814Z,4933
2018-03-25T07:30:46.961Z,4927
2018-03-25T07:31:17.885Z,4920
2018-03-25T07:31:47.029Z,4913
2018-03-25T07:32:17.942Z,4920
2018-03-25T07:32:47.100Z,4933
2018-03-25T07:33:18.029Z,4947
2018-03-25T07:33:47.143Z,4963
2018-03-25T07:34:18.093Z,4980
2018-03-25T07:34:47.232Z,5003
2018-03-25T07:35:18.219Z,5037
2018-03-25T07:35:47.303Z,5077
2018-03-25T07:36:18.217Z,5113
2018-03-25T07:36:47.395Z,5150
2018-03-25T07:37:18.290Z,5197
2018-03-25T07:37:47.463Z,5240
2018-03-25T07:38:18.351Z,5280
2018-03-25T07:38:47.496Z,5327
2018-03-25T07:39:18.363Z,5377
2018-03-25T07:39:47.564Z,5430
2018-03-25T07:40:18.492Z,5487
2018-03-25T07:40:47.633Z,5540
2018-03-25T07:41:18.494Z,5577
2018-03-25T07:41:47.711Z,5620
2018-03-25T07:42:18.557Z,5630
2018-03-25T07:42:47.769Z,5583
2018-03-25T07:43:18.623Z,5557
2018-03-25T07:43:47.815Z,5547
2018-03-25T07:44:18.688Z,5553
2018-03-25T07:44:47.860Z,5597
2018-03-25T07:45:18.766Z,5670
2018-03-25T07:45:47.940Z,5773
2018-03-25T07:46:18.772Z,5963
2018-03-25T07:46:48.009Z,6220
2018-03-25T07:47:48.039Z,6257
2018-03-25T07:48:18.919Z,6267
2018-03-25T07:48:48.068Z,6303
2018-03-25T07:49:18.982Z,6350
2018-03-25T07:49:48.147Z,6397
2018-03-25T07:50:19.023Z,6440
2018-03-25T07:50:48.275Z,6500
2018-03-25T07:51:19.089Z,6590
2018-03-25T07:51:48.313Z,6693
2018-03-25T07:52:19.186Z,6817
2018-03-25T07:52:48.373Z,6927
2018-03-25T07:53:19.257Z,7043
2018-03-25T07:53:48.492Z,7153
2018-03-25T07:54:19.293Z,7247
2018-03-25T07:54:48.494Z,7317
2018-03-25T07:55:19.359Z,7357
2018-03-25T07:55:48.500Z,7377
2018-03-25T07:56:48.610Z,7343
2018-03-25T07:57:19.473Z,7317
2018-03-25T07:57:48.641Z,7307
2018-03-25T07:58:19.508Z,7340
2018-03-25T07:59:19.607Z,7360
2018-03-25T07:59:48.748Z,7427
2018-03-25T08:00:19.671Z,7500
2018-03-25T08:00:48.818Z,7577
2018-03-25T08:01:19.760Z,7650
2018-03-25T08:01:48.869Z,7717
2018-03-25T08:02:19.812Z,7780
2018-03-25T08:02:48.941Z,7830
2018-03-25T08:03:19.826Z,7857
2018-03-25T08:03:49.006Z,7850
2018-03-25T08:04:19.991Z,7820
2018-03-25T08:04:49.052Z,7773
2018-03-25T08:05:19.946Z,7717
2018-03-25T08:05:49.163Z,7680
2018-03-25T08:06:20.004Z,7683
2018-03-25T08:06:49.233Z,7737
2018-03-25T08:07:20.075Z,7730
2018-03-25T08:07:49.283Z,7750
2018-03-25T08:08:20.154Z,7767
2018-03-25T08:08:49.304Z,7710
2018-03-25T08:09:20.228Z,7637
2018-03-25T08:09:49.452Z,7547
2018-03-25T08:10:20.302Z,7467
2018-03-25T08:10:49.498Z,7413
2018-03-25T08:11:20.335Z,7397
2018-03-25T08:11:49.495Z,7420
2018-03-25T08:12:20.372Z,7483
2018-03-25T08:12:49.560Z,7593
2018-03-25T08:13:20.434Z,7740
2018-03-25T08:13:49.606Z,7923
2018-03-25T08:14:20.525Z,8127
2018-03-25T08:14:49.711Z,8383
2018-03-25T08:15:20.567Z,8687
2018-03-25T08:15:49.735Z,8967
2018-03-25T08:16:21.648Z,9173
2018-03-25T08:16:49.800Z,9287
2018-03-25T08:17:20.736Z,9400
2018-03-25T08:17:49.916Z,9170
2018-03-25T08:18:20.778Z,9050
2018-03-25T08:18:49.980Z,8913
2018-03-25T08:19:20.894Z,8777
2018-03-25T08:19:50.039Z,8663
2018-03-25T08:20:20.968Z,8613
2018-03-25T08:20:50.100Z,8650
2018-03-25T08:21:21.015Z,8883
2018-03-25T08:21:50.226Z,9103
2018-03-25T08:22:21.120Z,9967
2018-03-25T08:22:50.224Z,11477
2018-03-25T08:23:21.139Z,9340
2018-03-25T08:23:50.286Z,9307
2018-03-25T08:24:21.253Z,9317
2018-03-25T08:24:50.381Z,9393
2018-03-25T08:25:21.320Z,9477
2018-03-25T08:25:50.447Z,9557
2018-03-25T08:26:21.324Z,9653
2018-03-25T08:26:50.501Z,9697
2018-03-25T08:27:22.210Z,9797
2018-03-25T08:27:50.591Z,9883
2018-03-25T08:28:21.448Z,10030
2018-03-25T08:28:50.637Z,10453
2018-03-25T08:29:21.536Z,10260
2018-03-25T08:29:50.669Z,10387
2018-03-25T08:30:21.593Z,10493
2018-03-25T08:30:50.757Z,10647
2018-03-25T08:31:21.625Z,10787
2018-03-25T08:31:50.825Z,10920
2018-03-25T08:32:21.706Z,11767
2018-03-25T08:32:50.874Z,11307
2018-03-25T08:33:21.758Z,10723
2018-03-25T08:33:50.997Z,10423
2018-03-25T08:34:21.791Z,10173
2018-03-25T08:34:51.014Z,10097
2018-03-25T08:35:21.894Z,10090
2018-03-25T08:35:51.072Z,10153
2018-03-25T08:36:21.917Z,10837
2018-03-25T08:36:51.132Z,11183
2018-03-25T08:37:22.040Z,10900
2018-03-25T08:37:51.186Z,10433
2018-03-25T08:38:22.068Z,10643
2018-03-25T08:38:51.244Z,10773
2018-03-25T08:39:22.125Z,11310
2018-03-25T08:39:51.315Z,12087
2018-03-25T08:40:22.163Z,12380
2018-03-25T08:40:51.376Z,12017
2018-03-25T08:41:22.249Z,12310
2018-03-25T08:41:51.426Z,12167
2018-03-25T08:42:22.320Z,12337
2018-03-25T08:42:51.496Z,11923
2018-03-25T08:43:22.346Z,12063
2018-03-25T08:43:51.559Z,12403
2018-03-25T08:44:22.434Z,13013
2018-03-25T08:44:51.592Z,14020
2018-03-25T08:45:22.491Z,13793
2018-03-25T08:45:51.648Z,13620
2018-03-25T08:46:22.526Z,13933
2018-03-25T08:46:51.701Z,14097
2018-03-25T08:47:22.591Z,15050
2018-03-25T08:47:51.772Z,17210
2018-03-25T08:48:22.657Z,15317
2018-03-25T08:48:51.830Z,16547
2018-03-25T08:49:22.727Z,16307
2018-03-25T08:49:51.930Z,23580
2018-03-25T08:50:22.780Z,16483
2018-03-25T08:50:51.985Z,16107
2018-03-25T08:51:22.872Z,14507
2018-03-25T08:51:52.018Z,14557
2018-03-25T08:52:22.894Z,14680
2018-03-25T08:52:52.087Z,16153
2018-03-25T08:53:22.972Z,16643
2018-03-25T08:53:52.158Z,15247
2018-03-25T08:54:23.064Z,15737
2018-03-25T08:54:52.237Z,18477
2018-03-25T08:55:23.091Z,16563
2018-03-25T08:55:52.281Z,19777
2018-03-25T08:56:23.173Z,15923
2018-03-25T08:56:52.330Z,15393
2018-03-25T08:57:23.238Z,15223
2018-03-25T08:57:52.403Z,14710
2018-03-25T08:58:23.287Z,14700
2018-03-25T08:58:52.481Z,15043
2018-03-25T08:59:23.350Z,15010
2018-03-25T08:59:52.537Z,15603
2018-03-25T09:00:23.420Z,17097
2018-03-25T09:00:52.574Z,19807
2018-03-25T09:01:23.506Z,19057
2018-03-25T09:01:52.680Z,18090
2018-03-25T09:02:23.542Z,19367
2018-03-25T09:02:52.683Z,22273
2018-03-25T09:03:23.583Z,30020
2018-03-25T09:03:52.818Z,18810
2018-03-25T09:04:23.708Z,17043
2018-03-25T09:04:52.821Z,17000
2018-03-25T09:05:23.740Z,18037
2018-03-25T09:05:52.867Z,17867
2018-03-25T09:06:23.785Z,16483
2018-03-25T09:06:52.949Z,16133
2018-03-25T09:07:23.853Z,16437
2018-03-25T09:07:53.008Z,16267
2018-03-25T09:08:23.904Z,17733
2018-03-25T09:08:53.065Z,17173
2018-03-25T09:09:23.969Z,18287
2018-03-25T09:09:53.113Z,19057
2018-03-25T09:10:24.072Z,18687
2018-03-25T09:10:53.236Z,24877
2018-03-25T09:11:24.138Z,21900
2018-03-25T09:11:53.239Z,21843
2018-03-25T09:12:24.178Z,21203
2018-03-25T09:12:53.332Z,20987
2018-03-25T09:13:24.213Z,21167
2018-03-25T09:13:53.391Z,22460
2018-03-25T09:14:24.323Z,20913
2018-03-25T09:14:53.545Z,25940
2018-03-25T09:15:24.387Z,25473
2018-03-25T09:15:53.521Z,28057
2018-03-25T09:16:24.423Z,31133
2018-03-25T09:16:53.614Z,31953
2018-03-25T09:17:24.454Z,30897
2018-03-25T09:17:53.648Z,31070
2018-03-25T09:18:24.513Z,31587
2018-03-25T09:18:53.736Z,30567
2018-03-25T09:19:24.602Z,31623
2018-03-25T09:19:53.803Z,30650
2018-03-25T09:20:24.619Z,30633
2018-03-25T09:20:53.871Z,31957
2018-03-25T09:21:24.693Z,31990
2018-03-25T09:21:53.925Z,31407
2018-03-25T09:22:24.780Z,30207
2018-03-25T09:22:54.131Z,30843
2018-03-25T09:23:24.882Z,31873
2018-03-25T09:23:54.067Z,31400
2018-03-25T09:24:24.876Z,30597
2018-03-25T09:24:54.075Z,30860
2018-03-25T09:25:24.945Z,28683
2018-03-25T09:25:54.092Z,31570
2018-03-25T09:26:24.993Z,31387
2018-03-25T09:26:54.213Z,31580
2018-03-25T09:27:25.075Z,32290
2018-03-25T09:27:54.240Z,32557
2018-03-25T09:28:25.143Z,32353
2018-03-25T09:28:54.315Z,32020
2018-03-25T09:29:25.241Z,31810
2018-03-25T09:29:54.400Z,31510
2018-03-25T09:30:25.295Z,31227
2018-03-25T09:30:54.458Z,26957
2018-03-25T09:31:25.330Z,26643
2018-03-25T09:31:54.548Z,29230
2018-03-25T09:32:25.393Z,29663
2018-03-25T09:32:54.567Z,28620
2018-03-25T09:33:25.469Z,26067
2018-03-25T09:33:54.606Z,28143
2018-03-25T09:34:25.508Z,27853
2018-03-25T09:34:54.696Z,29410
2018-03-25T09:35:25.622Z,30860
2018-03-25T09:35:54.731Z,30777
2018-03-25T09:36:25.620Z,28153
2018-03-25T09:36:54.779Z,31613
2018-03-25T09:37:25.667Z,29970
2018-03-25T09:37:54.845Z,31180
2018-03-25T09:38:25.730Z,30850
2018-03-25T09:38:54.915Z,27903
2018-03-25T09:39:25.789Z,31743
2018-03-25T09:39:54.972Z,31977
2018-03-25T09:40:25.873Z,32747
2018-03-25T09:40:55.039Z,33143
2018-03-25T09:41:25.968Z,33087
2018-03-25T09:41:55.090Z,33203
2018-03-25T09:42:26.036Z,32763
2018-03-25T09:42:55.150Z,32463
2018-03-25T09:43:26.105Z,32013
2018-03-25T09:43:55.210Z,31393
2018-03-25T09:44:26.138Z,31987
2018-03-25T09:44:55.273Z,32240
2018-03-25T09:45:26.223Z,33350
2018-03-25T09:45:55.390Z,33040
2018-03-25T09:46:26.223Z,32697
2018-03-25T09:46:55.456Z,32210
2018-03-25T09:47:26.287Z,32113
2018-03-25T09:47:55.539Z,32890
2018-03-25T09:48:26.385Z,33303
2018-03-25T09:48:55.574Z,33413
2018-03-25T09:49:26.467Z,33990
2018-03-25T09:49:55.590Z,34027
2018-03-25T09:50:26.491Z,33870
2018-03-25T09:50:55.683Z,33407
2018-03-25T09:51:26.573Z,33737
2018-03-25T09:51:55.718Z,34130
2018-03-25T09:52:26.621Z,34380
2018-03-25T09:52:55.761Z,34453
2018-03-25T09:53:26.704Z,34533
2018-03-25T09:53:55.827Z,35063
2018-03-25T09:54:26.789Z,35233
2018-03-25T09:54:55.916Z,35747
2018-03-25T09:55:26.804Z,35553
2018-03-25T09:55:56.725Z,35400
2018-03-25T09:56:26.911Z,35443
2018-03-25T09:56:56.024Z,35570
2018-03-25T09:57:26.903Z,35450
2018-03-25T09:57:56.075Z,35837
2018-03-25T09:58:27.044Z,35447
2018-03-25T09:58:56.131Z,35510
2018-03-25T09:59:27.097Z,35817
2018-03-25T09:59:56.199Z,36173
2018-03-25T10:00:27.122Z,36443
2018-03-25T10:00:56.298Z,36397
2018-03-25T10:01:27.182Z,36473
2018-03-25T10:01:56.328Z,36567
2018-03-25T10:02:27.235Z,36510
2018-03-25T10:02:56.449Z,36267
2018-03-25T10:03:27.271Z,36057
2018-03-25T10:03:56.518Z,36100
2018-03-25T10:04:27.373Z,36257
2018-03-25T10:04:56.581Z,35043
2018-03-25T10:05:27.424Z,37117
2018-03-25T10:05:56.600Z,36883
2018-03-25T10:06:27.457Z,36923
2018-03-25T10:06:56.712Z,36793
2018-03-25T10:07:27.565Z,37350
2018-03-25T10:07:56.730Z,37643
2018-03-25T10:08:27.586Z,38047
2018-03-25T10:08:56.787Z,38070
2018-03-25T10:09:27.646Z,38187
2018-03-25T10:09:56.847Z,38113
2018-03-25T10:10:27.702Z,37770
2018-03-25T10:10:56.917Z,37487
2018-03-25T10:11:27.851Z,37793
2018-03-25T10:11:56.938Z,37763
2018-03-25T10:12:27.833Z,37570
2018-03-25T10:12:57.050Z,38197
2018-03-25T10:13:27.952Z,38443
2018-03-25T10:13:57.135Z,38563
2018-03-25T10:14:28.030Z,38403
2018-03-25T10:14:57.168Z,38207
2018-03-25T10:15:28.097Z,38193
2018-03-25T10:15:57.221Z,38273
2018-03-25T10:16:28.116Z,38407
2018-03-25T10:16:57.279Z,38673
2018-03-25T10:17:28.230Z,38697
2018-03-25T10:17:57.345Z,38420
2018-03-25T10:18:28.226Z,38477
2018-03-25T10:18:57.462Z,38347
2018-03-25T10:19:28.292Z,38383
2018-03-25T10:19:57.467Z,38097
2018-03-25T10:20:28.409Z,38117
2018-03-25T10:20:57.544Z,38017
2018-03-25T10:21:28.414Z,38163
2018-03-25T10:21:57.605Z,38337
2018-03-25T10:22:28.453Z,38393
2018-03-25T10:22:57.656Z,38543
2018-03-25T10:23:28.533Z,38520
2018-03-25T10:23:57.682Z,38290
2018-03-25T10:24:28.573Z,38230
2018-03-25T10:24:57.790Z,38643
2018-03-25T10:25:28.651Z,38893
2018-03-25T10:25:57.821Z,39150
2018-03-25T10:26:28.708Z,38537
2018-03-25T10:26:57.872Z,38183
2018-03-25T10:27:28.743Z,38340
2018-03-25T10:27:57.929Z,38437
2018-03-25T10:28:28.824Z,38370
2018-03-25T10:28:57.983Z,38477
2018-03-25T10:29:28.868Z,38990
2018-03-25T10:29:58.055Z,39210
2018-03-25T10:30:28.938Z,39247
2018-03-25T10:30:58.133Z,39480
2018-03-25T10:31:28.990Z,39713
2018-03-25T10:31:58.164Z,40073
2018-03-25T10:32:29.062Z,40177
2018-03-25T10:32:58.277Z,40020
2018-03-25T10:33:29.150Z,39680
2018-03-25T10:33:58.289Z,39773
2018-03-25T10:34:29.210Z,39813
2018-03-25T10:34:58.407Z,39663
2018-03-25T10:35:29.240Z,39510
2018-03-25T10:35:58.457Z,39370
2018-03-25T10:36:29.341Z,39510
2018-03-25T10:36:58.552Z,39783
2018-03-25T10:37:29.442Z,39850
2018-03-25T10:37:58.607Z,39207
2018-03-25T10:38:29.464Z,38143
2018-03-25T10:38:58.645Z,39733
2018-03-25T10:39:29.647Z,40110
2018-03-25T10:39:58.662Z,40207
2018-03-25T10:40:29.647Z,40307
2018-03-25T10:40:58.731Z,40533
2018-03-25T10:41:29.649Z,40227
2018-03-25T10:41:58.782Z,40477
2018-03-25T10:42:29.765Z,40850
2018-03-25T10:42:58.842Z,40567
2018-03-25T10:43:29.837Z,40117
2018-03-25T10:43:58.909Z,40643
2018-03-25T10:44:29.820Z,40810
2018-03-25T10:44:59.030Z,40930
2018-03-25T10:45:29.908Z,40610
2018-03-25T10:45:59.043Z,40527
2018-03-25T10:46:29.977Z,40217
2018-03-25T10:46:59.096Z,39803
2018-03-25T10:47:30.016Z,40557
2018-03-25T10:47:59.159Z,40980
2018-03-25T10:48:30.046Z,40780
2018-03-25T10:48:59.213Z,40600
2018-03-25T10:49:30.135Z,40700
2018-03-25T10:49:59.279Z,40583
2018-03-25T10:50:30.193Z,40493
2018-03-25T10:50:59.340Z,40263
2018-03-25T10:51:30.319Z,40023
2018-03-25T10:51:59.405Z,39703
2018-03-25T10:52:30.351Z,39550
2018-03-25T10:52:59.495Z,39110
2018-03-25T10:53:30.356Z,38763
2018-03-25T10:53:59.555Z,38347
2018-03-25T10:54:30.454Z,37333
2018-03-25T10:54:59.645Z,38000
2018-03-25T10:55:30.549Z,38923
2018-03-25T10:55:59.692Z,38113
2018-03-25T10:56:30.565Z,38563
2018-03-25T10:56:59.789Z,38517
2018-03-25T10:57:30.727Z,38373
2018-03-25T10:57:59.834Z,38417
2018-03-25T10:58:30.676Z,38643
2018-03-25T10:58:59.863Z,38630
2018-03-25T10:59:30.728Z,38377
2018-03-25T10:59:59.930Z,38417
2018-03-25T11:00:30.820Z,38720
2018-03-25T11:01:00.001Z,38780
2018-03-25T11:01:30.837Z,38577
2018-03-25T11:02:00.042Z,36923
2018-03-25T11:02:30.911Z,37583
2018-03-25T11:03:00.161Z,38080
2018-03-25T11:03:30.997Z,38687
2018-03-25T11:04:00.199Z,39000
2018-03-25T11:04:31.033Z,38863
2018-03-25T11:05:00.803Z,39140
2018-03-25T11:05:31.528Z,36567
2018-03-25T11:06:01.038Z,37603
2018-03-25T11:06:31.556Z,37563
2018-03-25T11:07:00.685Z,37277
2018-03-25T11:07:31.639Z,37110
2018-03-25T11:08:00.745Z,37147
2018-03-25T11:08:32.013Z,37420
2018-03-25T11:09:00.908Z,37717
2018-03-25T11:09:31.754Z,37343
2018-03-25T11:10:00.890Z,36813
2018-03-25T11:10:31.768Z,36917
2018-03-25T11:11:00.933Z,37193
2018-03-25T11:11:31.817Z,37563
2018-03-25T11:12:01.077Z,38353
2018-03-25T11:12:31.888Z,38423
2018-03-25T11:13:01.058Z,38273
2018-03-25T11:13:31.944Z,38800
2018-03-25T11:14:01.121Z,38617
2018-03-25T11:14:32.083Z,38023
2018-03-25T11:15:01.181Z,37950
2018-03-25T11:15:32.069Z,37973
2018-03-25T11:16:01.261Z,37850
2018-03-25T11:16:32.173Z,37763
2018-03-25T11:17:01.365Z,38123
2018-03-25T11:17:32.248Z,38033
2018-03-25T11:18:01.612Z,37957
2018-03-25T11:18:32.270Z,37973
2018-03-25T11:19:01.424Z,38190
2018-03-25T11:19:32.316Z,38323
2018-03-25T11:20:01.499Z,38033
2018-03-25T11:20:32.450Z,38310
2018-03-25T11:21:01.612Z,38223
2018-03-25T11:21:32.541Z,38303
2018-03-25T11:22:01.632Z,38263
2018-03-25T11:22:32.526Z,36443
2018-03-25T11:23:01.691Z,34867
2018-03-25T11:23:32.628Z,37290
2018-03-25T11:24:01.788Z,36943
2018-03-25T11:24:32.676Z,36553
2018-03-25T11:25:01.837Z,36620
2018-03-25T11:25:32.783Z,36957
2018-03-25T11:26:01.922Z,37043
2018-03-25T11:26:32.798Z,36913
2018-03-25T11:27:01.949Z,37317
2018-03-25T11:27:32.810Z,37797
2018-03-25T11:28:01.985Z,38447
2018-03-25T11:28:32.876Z,37323
2018-03-25T11:29:02.047Z,37797
2018-03-25T11:29:32.962Z,38353
2018-03-25T11:30:02.120Z,38457
2018-03-25T11:30:33.060Z,39263
2018-03-25T11:31:02.221Z,39687
2018-03-25T11:31:33.097Z,38560
2018-03-25T11:32:02.290Z,39003
2018-03-25T11:32:33.162Z,38683
2018-03-25T11:33:02.294Z,39500
2018-03-25T11:33:33.214Z,39210
2018-03-25T11:34:02.410Z,39273
2018-03-25T11:34:33.323Z,39500
2018-03-25T11:35:02.459Z,39090
2018-03-25T11:35:33.363Z,38360
2018-03-25T11:36:02.534Z,18237
2018-03-25T11:36:33.408Z,25053
2018-03-25T11:37:02.579Z,35670
2018-03-25T11:37:33.428Z,37543
2018-03-25T11:38:02.629Z,30430
2018-03-25T11:38:33.497Z,19013
2018-03-25T11:39:02.658Z,20693
2018-03-25T11:39:33.593Z,38373
2018-03-25T11:40:02.753Z,39993
2018-03-25T11:40:33.667Z,38717
2018-03-25T11:41:02.858Z,30907
2018-03-25T11:41:33.706Z,39557